Time;durP1;ratioP1;P1;durP2;ratioP2;P2;SDS_P1;SDS_P2;PMS_P1;PMS_P2;Temp;Humidity;BMP_temperature;BMP_pressure;BME280_temperature;BME280_humidity;BME280_pressure;Samples;Min_cycle;Max_cycle;Signal;HPM_P1;HPM_P2
2021/10/20 00:00:23;;;;;;;5.53;2.33;;;11.50;85.80;;;;;;6280561;22;19999;-70
2021/10/20 00:02:49;;;;;;;7.45;2.47;;;11.70;83.30;;;;;;6280225;22;20357;-69
2021/10/20 00:05:17;;;;;;;6.05;2.58;;;11.80;84.80;;;;;;6280115;22;20000;-69
2021/10/20 00:07:46;;;;;;;5.65;2.22;;;11.80;84.30;;;;;;6280254;22;20088;-70
2021/10/20 00:10:13;;;;;;;5.57;2.30;;;11.90;84.10;;;;;;6280732;22;20365;-68
2021/10/20 00:12:38;;;;;;;5.20;2.40;;;11.90;83.80;;;;;;6278497;22;20014;-70
2021/10/20 00:15:06;;;;;;;6.53;2.10;;;11.80;83.40;;;;;;6280534;22;20023;-70
2021/10/20 00:17:35;;;;;;;4.82;2.20;;;11.90;82.20;;;;;;6279171;22;20022;-70
2021/10/20 00:20:07;;;;;;;4.72;1.90;;;12.10;81.50;;;;;;6280358;22;19996;-70
2021/10/20 00:22:34;;;;;;;4.65;2.30;;;12.10;81.30;;;;;;6280449;22;20027;-68
2021/10/20 00:25:00;;;;;;;4.78;2.22;;;12.20;80.50;;;;;;6279957;22;20084;-68
2021/10/20 00:27:26;;;;;;;5.82;2.17;;;12.30;80.00;;;;;;6278439;22;20004;-68
2021/10/20 00:29:53;;;;;;;5.50;2.10;;;12.30;80.90;;;;;;6280456;22;19999;-68
2021/10/20 00:32:19;;;;;;;5.93;2.30;;;12.30;81.50;;;;;;6280161;22;20011;-68
2021/10/20 00:34:44;;;;;;;5.60;2.38;;;12.20;80.70;;;;;;6279921;22;20420;-70
2021/10/20 00:37:10;;;;;;;4.20;2.10;;;12.10;81.40;;;;;;6280026;22;20003;-71
2021/10/20 00:39:36;;;;;;;5.55;2.60;;;12.00;81.60;;;;;;6280086;22;20007;-70
2021/10/20 00:42:03;;;;;;;4.40;2.13;;;12.00;81.50;;;;;;6278225;22;19995;-70
2021/10/20 00:44:29;;;;;;;5.32;2.20;;;12.00;81.80;;;;;;6279706;22;20071;-70
2021/10/20 00:46:56;;;;;;;5.30;1.88;;;12.10;79.80;;;;;;6279608;22;20265;-71
2021/10/20 00:49:21;;;;;;;5.03;2.13;;;12.10;79.30;;;;;;6279910;22;20431;-70
2021/10/20 00:51:47;;;;;;;4.43;2.00;;;12.20;77.70;;;;;;6280131;22;20004;-70
2021/10/20 00:54:13;;;;;;;6.38;2.28;;;12.10;78.30;;;;;;6279877;22;20270;-69
2021/10/20 00:56:53;;;;;;;5.25;2.47;;;12.10;81.10;;;;;;6252493;22;20007;-69
2021/10/20 00:59:18;;;;;;;7.88;2.70;;;11.80;82.00;;;;;;6279648;22;20007;-71
2021/10/20 01:01:44;;;;;;;5.57;2.55;;;11.50;84.10;;;;;;6280070;22;19996;-70
2021/10/20 01:04:13;;;;;;;6.57;2.10;;;11.20;84.20;;;;;;6279821;22;20023;-70
2021/10/20 01:06:38;;;;;;;3.88;1.85;;;11.20;84.80;;;;;;6279849;22;20065;-69
2021/10/20 01:09:04;;;;;;;4.05;2.10;;;11.30;83.30;;;;;;6279481;22;20007;-70
2021/10/20 01:11:30;;;;;;;4.25;2.00;;;11.40;82.30;;;;;;6279645;22;20280;-70
2021/10/20 01:13:56;;;;;;;4.50;2.00;;;11.60;77.90;;;;;;6278001;22;20057;-70
2021/10/20 01:16:22;;;;;;;6.70;2.05;;;11.90;79.40;;;;;;6279441;22;20075;-69
2021/10/20 01:18:48;;;;;;;4.78;2.00;;;11.90;79.00;;;;;;6253043;22;20424;-70
2021/10/20 01:21:20;;;;;;;3.67;1.65;;;11.80;78.50;;;;;;6280025;22;20054;-70
2021/10/20 01:23:49;;;;;;;3.63;1.88;;;11.80;77.80;;;;;;6252856;22;20380;-70
2021/10/20 01:26:16;;;;;;;4.18;1.83;;;11.80;79.00;;;;;;6279779;22;20074;-70
2021/10/20 01:28:43;;;;;;;4.38;2.13;;;11.80;78.40;;;;;;6278195;22;20321;-70
2021/10/20 01:31:09;;;;;;;5.32;2.13;;;11.70;79.40;;;;;;6279664;22;20070;-70
2021/10/20 01:33:35;;;;;;;5.57;2.03;;;11.70;77.40;;;;;;6279697;22;20463;-70
2021/10/20 01:36:01;;;;;;;4.70;1.70;;;11.90;76.80;;;;;;6279461;22;20039;-70
2021/10/20 01:38:27;;;;;;;4.28;1.88;;;12.10;76.00;;;;;;6279290;22;20083;-69
2021/10/20 01:40:52;;;;;;;4.57;1.90;;;12.30;74.30;;;;;;6253108;22;20075;-70
2021/10/20 01:43:18;;;;;;;4.07;1.85;;;12.40;74.60;;;;;;6278131;22;20075;-70
2021/10/20 01:45:44;;;;;;;6.22;1.88;;;12.30;75.90;;;;;;6279514;22;20373;-70
2021/10/20 01:48:09;;;;;;;4.80;1.83;;;12.30;75.70;;;;;;6279315;22;20011;-70
2021/10/20 01:50:35;;;;;;;5.45;2.00;;;12.40;76.00;;;;;;6279999;22;20004;-70
2021/10/20 01:53:01;;;;;;;5.38;2.20;;;12.40;77.00;;;;;;6278402;22;20007;-70
2021/10/20 01:55:27;;;;;;;6.50;2.17;;;12.10;79.00;;;;;;6279432;22;20082;-70
2021/10/20 01:57:52;;;;;;;4.55;1.67;;;11.90;77.40;;;;;;6277875;22;20000;-70
2021/10/20 02:00:18;;;;;;;5.57;1.92;;;11.80;79.00;;;;;;6279393;22;19999;-70
2021/10/20 02:02:44;;;;;;;7.40;2.47;;;12.00;76.40;;;;;;6279573;22;20053;-70
2021/10/20 02:05:11;;;;;;;5.68;2.25;;;12.20;79.60;;;;;;6252258;22;20039;-70
2021/10/20 02:07:37;;;;;;;5.50;1.85;;;11.90;80.50;;;;;;6251879;22;20014;-69
2021/10/20 02:10:12;;;;;;;4.75;1.80;;;11.80;76.70;;;;;;6278803;22;20011;-70
2021/10/20 02:12:38;;;;;;;4.32;1.88;;;12.00;73.30;;;;;;6277890;22;19999;-70
2021/10/20 02:15:05;;;;;;;3.55;1.73;;;12.80;73.50;;;;;;6279238;22;20121;-70
2021/10/20 02:17:30;;;;;;;4.68;1.80;;;12.80;74.50;;;;;;6279308;22;20022;-70
2021/10/20 02:19:56;;;;;;;4.18;1.80;;;12.60;74.90;;;;;;6279867;22;19999;-69
2021/10/20 02:22:22;;;;;;;3.95;1.95;;;12.60;71.50;;;;;;6279125;22;20293;-69
2021/10/20 02:24:50;;;;;;;5.78;2.28;;;12.90;72.00;;;;;;6278654;22;20031;-70
2021/10/20 02:27:16;;;;;;;3.67;1.80;;;12.70;75.70;;;;;;6277829;22;20088;-69
2021/10/20 02:29:42;;;;;;;4.63;1.88;;;12.40;76.20;;;;;;6279260;22;20373;-70
2021/10/20 02:32:08;;;;;;;4.03;1.75;;;12.30;74.30;;;;;;6279229;22;20005;-70
2021/10/20 02:34:33;;;;;;;4.72;1.90;;;12.40;73.30;;;;;;6279133;22;20000;-70
2021/10/20 02:37:02;;;;;;;5.70;1.83;;;12.50;73.70;;;;;;6278919;22;20011;-70
2021/10/20 02:39:27;;;;;;;3.05;1.42;;;12.70;71.30;;;;;;6279231;22;19996;-70
2021/10/20 02:41:53;;;;;;;4.78;1.98;;;13.00;70.30;;;;;;6277997;22;20006;-70
2021/10/20 02:44:19;;;;;;;3.83;1.80;;;13.30;69.60;;;;;;6279299;22;20007;-70
2021/10/20 02:46:44;;;;;;;3.10;1.60;;;13.50;68.60;;;;;;6278767;22;20246;-71
2021/10/20 02:49:10;;;;;;;3.70;1.60;;;13.70;68.80;;;;;;6252505;22;20026;-69
2021/10/20 02:51:36;;;;;;;4.50;1.88;;;13.70;68.50;;;;;;6278980;22;20011;-70
2021/10/20 02:54:02;;;;;;;4.10;1.95;;;13.70;69.00;;;;;;6279238;22;20010;-70
2021/10/20 02:56:27;;;;;;;5.53;1.48;;;13.80;67.10;;;;;;6279087;22;20003;-70
2021/10/20 02:58:54;;;;;;;5.47;1.80;;;13.90;67.50;;;;;;6277794;22;20027;-70
2021/10/20 03:01:20;;;;;;;4.15;1.80;;;14.00;66.60;;;;;;6280517;22;20003;-70
2021/10/20 03:03:46;;;;;;;4.15;1.83;;;14.10;67.00;;;;;;6281257;22;20293;-70
2021/10/20 03:06:17;;;;;;;4.78;1.50;;;14.00;66.60;;;;;;6281206;22;20008;-69
2021/10/20 03:08:43;;;;;;;4.10;1.50;;;14.30;65.40;;;;;;6280559;22;20014;-70
2021/10/20 03:11:11;;;;;;;4.53;1.80;;;14.20;67.50;;;;;;6254203;22;20007;-70
2021/10/20 03:13:37;;;;;;;5.25;1.98;;;13.70;72.80;;;;;;6279891;22;20490;-69
2021/10/20 03:16:05;;;;;;;6.18;1.90;;;13.00;74.90;;;;;;6281047;22;20004;-70
2021/10/20 03:18:32;;;;;;;7.10;2.00;;;12.70;73.50;;;;;;6280775;22;20422;-70
2021/10/20 03:20:57;;;;;;;4.68;1.90;;;12.40;74.10;;;;;;6281340;22;20057;-68
2021/10/20 03:23:23;;;;;;;4.40;1.85;;;12.50;74.50;;;;;;6281049;22;19999;-68
2021/10/20 03:25:48;;;;;;;2.83;1.40;;;12.60;70.80;;;;;;6254259;22;20361;-69
2021/10/20 03:28:14;;;;;;;5.07;1.70;;;12.60;74.90;;;;;;6279354;22;20004;-68
2021/10/20 03:30:40;;;;;;;4.50;1.90;;;12.40;75.40;;;;;;6281146;22;20000;-71
2021/10/20 03:33:05;;;;;;;4.18;2.00;;;12.40;73.10;;;;;;6281353;22;20040;-70
2021/10/20 03:35:31;;;;;;;4.05;1.63;;;12.70;73.10;;;;;;6280713;22;20050;-68
2021/10/20 03:37:57;;;;;;;3.50;1.60;;;12.70;72.20;;;;;;6280848;22;20003;-70
2021/10/20 03:40:25;;;;;;;3.45;1.65;;;12.80;70.60;;;;;;6281372;22;20073;-70
2021/10/20 03:42:51;;;;;;;3.83;1.52;;;12.70;71.90;;;;;;6279180;22;20000;-72
2021/10/20 03:45:17;;;;;;;3.00;1.50;;;12.60;73.50;;;;;;6280672;22;20014;-69
2021/10/20 03:47:43;;;;;;;3.00;1.50;;;12.60;68.70;;;;;;6280752;22;20296;-70
2021/10/20 03:50:09;;;;;;;4.63;1.70;;;13.00;69.80;;;;;;6280637;22;20011;-69
2021/10/20 03:52:35;;;;;;;3.53;1.65;;;13.20;68.70;;;;;;6280890;22;20000;-67
2021/10/20 03:55:03;;;;;;;3.65;1.60;;;13.30;69.10;;;;;;6279996;22;20008;-69
2021/10/20 03:57:36;;;;;;;4.65;1.63;;;13.30;68.70;;;;;;6279471;22;20003;-70
2021/10/20 04:00:06;;;;;;;3.85;1.52;;;13.40;67.50;;;;;;6280479;22;20079;-70
2021/10/20 04:02:32;;;;;;;4.25;1.67;;;13.30;70.00;;;;;;6280253;22;19999;-69
2021/10/20 04:05:00;;;;;;;2.70;1.30;;;13.50;67.70;;;;;;6280373;22;20011;-70
2021/10/20 04:07:26;;;;;;;3.42;1.40;;;13.60;66.80;;;;;;6280044;22;20051;-70
2021/10/20 04:09:52;;;;;;;4.90;1.73;;;13.80;65.90;;;;;;6279643;22;20003;-69
2021/10/20 04:12:18;;;;;;;22.95;10.93;;;14.10;66.70;;;;;;6279328;22;19995;-69
2021/10/20 04:14:43;;;;;;;6.38;3.03;;;13.80;69.20;;;;;;6253098;22;20004;-70
2021/10/20 04:17:09;;;;;;;4.03;1.77;;;13.30;71.50;;;;;;6253059;22;20015;-70
2021/10/20 04:19:35;;;;;;;4.07;1.70;;;13.00;72.20;;;;;;6279642;22;20057;-69
2021/10/20 04:22:00;;;;;;;3.15;1.52;;;12.80;70.30;;;;;;6279289;22;20003;-70
2021/10/20 04:24:26;;;;;;;4.85;1.50;;;12.80;68.60;;;;;;6280680;22;20003;-70
2021/10/20 04:26:52;;;;;;;4.90;1.70;;;13.00;68.80;;;;;;6278312;22;20058;-70
2021/10/20 04:29:18;;;;;;;3.03;1.40;;;12.70;73.50;;;;;;6280818;22;20004;-72
2021/10/20 04:31:43;;;;;;;3.10;1.55;;;13.10;68.80;;;;;;6280046;22;20038;-69
2021/10/20 04:34:10;;;;;;;4.28;1.70;;;13.50;67.30;;;;;;6253045;22;20008;-69
2021/10/20 04:36:35;;;;;;;3.05;1.50;;;13.10;74.60;;;;;;6280470;22;20022;-70
2021/10/20 04:39:02;;;;;;;3.33;1.60;;;12.70;72.00;;;;;;6279940;22;20021;-72
2021/10/20 04:41:27;;;;;;;3.85;1.70;;;12.50;72.80;;;;;;6279614;22;20000;-67
2021/10/20 04:43:53;;;;;;;4.03;1.63;;;12.50;71.50;;;;;;6278750;22;20134;-70
2021/10/20 04:46:19;;;;;;;3.83;2.03;;;12.60;70.40;;;;;;6280158;22;20370;-70
2021/10/20 04:48:44;;;;;;;3.58;1.60;;;12.50;72.80;;;;;;6279917;22;20004;-69
2021/10/20 04:51:10;;;;;;;5.07;1.63;;;12.60;70.80;;;;;;6279225;22;19999;-70
2021/10/20 04:53:38;;;;;;;3.00;1.38;;;12.70;72.50;;;;;;6253279;22;20078;-70
2021/10/20 04:56:04;;;;;;;4.63;2.22;;;12.50;71.50;;;;;;6280038;22;20238;-70
2021/10/20 04:58:29;;;;;;;3.25;1.60;;;12.30;77.20;;;;;;6278004;22;20007;-74
2021/10/20 05:00:55;;;;;;;3.15;1.60;;;12.20;73.40;;;;;;6278867;22;20273;-70
2021/10/20 05:03:21;;;;;;;5.40;2.00;;;12.20;73.30;;;;;;6277813;22;20357;-72
2021/10/20 05:05:46;;;;;;;4.25;1.98;;;12.10;78.00;;;;;;6278479;22;20054;-71
2021/10/20 05:08:12;;;;;;;4.95;1.92;;;11.80;77.60;;;;;;6279034;22;20357;-72
2021/10/20 05:10:38;;;;;;;5.13;2.10;;;11.50;79.80;;;;;;6280325;22;19995;-71
2021/10/20 05:13:07;;;;;;;8.48;2.80;;;11.20;81.60;;;;;;6278772;22;20030;-71
2021/10/20 05:15:32;;;;;;;4.32;2.08;;;10.90;83.10;;;;;;6279770;22;20057;-71
2021/10/20 05:17:58;;;;;;;4.80;2.50;;;10.50;86.50;;;;;;6280148;22;20011;-71
2021/10/20 05:20:26;;;;;;;6.85;3.25;;;10.10;87.10;;;;;;6253270;22;20331;-71
2021/10/20 05:22:52;;;;;;;5.88;3.40;;;10.00;87.50;;;;;;6253213;22;20004;-71
2021/10/20 05:25:20;;;;;;;5.18;2.25;;;9.80;86.50;;;;;;6280157;22;20015;-71
2021/10/20 05:27:46;;;;;;;4.30;2.10;;;9.70;87.60;;;;;;6278683;22;20004;-71
2021/10/20 05:30:12;;;;;;;4.72;2.17;;;9.50;91.10;;;;;;6280274;22;20081;-71
2021/10/20 05:32:38;;;;;;;4.80;2.40;;;9.40;89.40;;;;;;6279972;22;20000;-72
2021/10/20 05:35:04;;;;;;;3.85;1.90;;;9.40;90.30;;;;;;6280025;22;20006;-70
2021/10/20 05:37:30;;;;;;;4.85;2.20;;;9.20;91.10;;;;;;6280239;22;20003;-72
2021/10/20 05:39:58;;;;;;;3.70;2.15;;;9.20;91.10;;;;;;6280068;22;20000;-70
2021/10/20 05:42:24;;;;;;;4.90;1.80;;;9.20;91.10;;;;;;6278741;22;20007;-71
2021/10/20 05:44:52;;;;;;;4.70;2.17;;;9.40;88.20;;;;;;6252939;22;20007;-70
2021/10/20 05:47:19;;;;;;;5.88;2.10;;;9.50;89.20;;;;;;6280179;22;20054;-71
2021/10/20 05:49:45;;;;;;;5.10;1.83;;;9.60;87.90;;;;;;6279780;22;20078;-73
2021/10/20 05:52:10;;;;;;;8.05;2.00;;;9.80;84.50;;;;;;6280159;22;20290;-70
2021/10/20 05:54:36;;;;;;;3.67;1.70;;;10.00;84.90;;;;;;6279031;22;20003;-71
2021/10/20 05:57:02;;;;;;;4.18;1.63;;;10.20;81.90;;;;;;6278115;22;20238;-73
2021/10/20 05:59:27;;;;;;;4.38;1.75;;;10.70;77.40;;;;;;6279892;22;20364;-71
2021/10/20 06:01:53;;;;;;;3.67;1.70;;;11.10;76.60;;;;;;6279924;22;20094;-72
2021/10/20 06:04:19;;;;;;;4.85;1.73;;;11.40;74.50;;;;;;6279646;22;20000;-71
2021/10/20 06:06:45;;;;;;;4.78;2.00;;;11.80;75.10;;;;;;6279886;22;19999;-71
2021/10/20 06:09:11;;;;;;;4.85;2.00;;;11.70;78.60;;;;;;6279201;22;20019;-71
2021/10/20 06:11:37;;;;;;;4.68;2.30;;;11.60;77.70;;;;;;6252133;22;20324;-72
2021/10/20 06:14:04;;;;;;;6.15;2.25;;;11.20;82.90;;;;;;6279204;22;20078;-70
2021/10/20 06:16:35;;;;;;;4.03;2.30;;;10.80;84.30;;;;;;6279197;22;20266;-71
2021/10/20 06:19:05;;;;;;;6.40;2.47;;;10.50;85.40;;;;;;6252799;22;20035;-70
2021/10/20 06:21:34;;;;;;;6.03;2.75;;;10.30;87.00;;;;;;6279881;22;20022;-70
2021/10/20 06:24:00;;;;;;;4.93;2.22;;;10.10;87.60;;;;;;6279440;22;20026;-72
2021/10/20 06:26:27;;;;;;;5.72;1.90;;;10.00;88.20;;;;;;6279821;22;20017;-72
2021/10/20 06:28:54;;;;;;;5.03;2.38;;;10.00;87.60;;;;;;6277723;22;20050;-72
2021/10/20 06:31:20;;;;;;;5.50;1.80;;;9.90;90.10;;;;;;6279979;22;20031;-71
2021/10/20 06:33:46;;;;;;;5.90;2.10;;;9.80;89.80;;;;;;6279172;22;20015;-72
2021/10/20 06:36:32;;;;;;;5.28;2.30;;;9.80;90.80;;;;;;6279233;22;20392;-72
2021/10/20 06:38:59;;;;;;;5.00;1.80;;;9.70;91.90;;;;;;6279839;22;20045;-71
2021/10/20 06:41:26;;;;;;;4.55;2.00;;;9.70;91.40;;;;;;6279777;22;20023;-72
2021/10/20 06:43:51;;;;;;;8.35;2.47;;;9.70;92.10;;;;;;6277952;22;20565;-71
2021/10/20 06:46:17;;;;;;;6.78;1.95;;;9.70;92.30;;;;;;6279822;22;20004;-71
2021/10/20 06:48:43;;;;;;;4.85;2.10;;;9.80;91.90;;;;;;6279630;22;20004;-72
2021/10/20 06:51:09;;;;;;;5.40;2.20;;;9.90;91.40;;;;;;6279844;22;20010;-72
2021/10/20 06:53:36;;;;;;;4.50;1.98;;;10.10;91.50;;;;;;6279752;22;20095;-72
2021/10/20 06:56:04;;;;;;;6.35;2.88;;;10.20;91.40;;;;;;6278373;22;20027;-72
2021/10/20 06:58:29;;;;;;;4.70;2.90;;;10.40;91.30;;;;;;6277670;22;20003;-71
2021/10/20 07:00:55;;;;;;;6.53;2.67;;;10.40;91.30;;;;;;6252859;22;20003;-71
2021/10/20 07:03:21;;;;;;;5.93;3.10;;;10.40;91.50;;;;;;6279732;22;19995;-71
2021/10/20 07:05:47;;;;;;;5.15;2.60;;;10.40;92.00;;;;;;6279352;22;20082;-71
2021/10/20 07:08:13;;;;;;;4.57;2.10;;;10.50;91.80;;;;;;6279108;22;19999;-72
2021/10/20 07:10:39;;;;;;;5.35;2.15;;;10.60;91.70;;;;;;6279283;22;20265;-71
2021/10/20 07:13:05;;;;;;;6.55;2.33;;;10.60;91.10;;;;;;6251095;22;20004;-73
2021/10/20 07:15:31;;;;;;;5.88;2.75;;;10.80;91.20;;;;;;6279684;22;20094;-71
2021/10/20 07:17:57;;;;;;;5.68;2.40;;;11.00;90.50;;;;;;6279229;22;20082;-71
2021/10/20 07:20:23;;;;;;;4.93;2.42;;;11.10;88.70;;;;;;6279688;22;20009;-71
2021/10/20 07:22:49;;;;;;;5.63;2.55;;;11.30;88.80;;;;;;6279688;22;20422;-71
2021/10/20 07:25:21;;;;;;;6.95;2.72;;;11.50;89.40;;;;;;6279152;22;20014;-71
2021/10/20 07:27:48;;;;;;;6.00;2.92;;;11.70;85.70;;;;;;6277679;22;20087;-70
2021/10/20 07:30:14;;;;;;;7.57;3.00;;;11.90;81.40;;;;;;6252651;22;20087;-71
2021/10/20 07:32:40;;;;;;;6.20;2.90;;;12.10;80.40;;;;;;6279478;22;20000;-71
2021/10/20 07:35:11;;;;;;;4.53;2.20;;;12.30;80.20;;;;;;6252600;22;20008;-71
2021/10/20 07:37:38;;;;;;;4.53;2.10;;;12.50;86.40;;;;;;6279053;22;20265;-71
2021/10/20 07:40:05;;;;;;;5.93;2.17;;;12.60;87.50;;;;;;6279567;22;20000;-71
2021/10/20 07:42:36;;;;;;;21.92;11.10;;;12.80;88.20;;;;;;6278074;22;20004;-71
2021/10/20 07:45:04;;;;;;;20.15;7.25;;;12.90;89.00;;;;;;6279557;22;20304;-70
2021/10/20 07:47:29;;;;;;;3.55;1.67;;;13.10;89.20;;;;;;6281245;22;20380;-71
2021/10/20 07:49:55;;;;;;;7.45;2.13;;;13.50;88.60;;;;;;6281197;22;20000;-71
2021/10/20 07:52:25;;;;;;;3.83;1.77;;;13.70;88.30;;;;;;6281090;22;20004;-71
2021/10/20 07:54:51;;;;;;;4.22;1.70;;;14.50;79.60;;;;;;6281618;22;20006;-71
2021/10/20 07:57:17;;;;;;;3.95;1.80;;;15.80;75.90;;;;;;6252750;22;20061;-72
2021/10/20 07:59:42;;;;;;;3.50;1.60;;;17.20;66.50;;;;;;6254310;22;20003;-71
2021/10/20 08:02:08;;;;;;;4.68;1.63;;;18.80;67.60;;;;;;6280865;22;20357;-71
2021/10/20 08:04:35;;;;;;;4.68;1.65;;;19.70;63.60;;;;;;6281094;22;20004;-72
2021/10/20 08:07:00;;;;;;;3.67;1.50;;;20.30;58.80;;;;;;6281118;22;20004;-71
2021/10/20 08:09:26;;;;;;;3.75;1.60;;;20.10;57.30;;;;;;6280477;22;20011;-71
2021/10/20 08:11:51;;;;;;;2.90;1.40;;;19.70;57.40;;;;;;6279744;22;20003;-72
2021/10/20 08:14:17;;;;;;;4.78;2.10;;;20.00;55.40;;;;;;6280878;22;20000;-71
2021/10/20 08:16:43;;;;;;;5.15;1.77;;;20.00;56.30;;;;;;6280597;22;20421;-70
2021/10/20 08:19:08;;;;;;;6.78;2.28;;;20.30;56.70;;;;;;6281221;22;20028;-71
2021/10/20 08:21:37;;;;;;;4.32;1.85;;;20.90;55.90;;;;;;6280827;22;20257;-71
2021/10/20 08:24:03;;;;;;;5.40;2.05;;;21.70;54.80;;;;;;6280734;22;20003;-72
2021/10/20 08:26:29;;;;;;;6.32;2.00;;;21.80;53.70;;;;;;6280896;22;20236;-71
2021/10/20 08:28:55;;;;;;;5.55;1.88;;;22.10;53.60;;;;;;6279608;22;20015;-71
2021/10/20 08:31:20;;;;;;;3.25;1.50;;;22.90;53.70;;;;;;6280826;22;20003;-72
2021/10/20 08:33:46;;;;;;;3.47;1.58;;;23.10;52.00;;;;;;6280647;22;20412;-71
2021/10/20 08:36:12;;;;;;;4.47;1.50;;;22.70;52.40;;;;;;6280721;22;19999;-71
2021/10/20 08:38:38;;;;;;;3.97;1.40;;;22.70;52.90;;;;;;6280723;22;20003;-71
2021/10/20 08:41:04;;;;;;;6.28;1.50;;;22.90;53.60;;;;;;6281004;22;20007;-71
2021/10/20 08:43:30;;;;;;;4.80;1.60;;;23.70;53.20;;;;;;6279198;22;20007;-72
2021/10/20 08:45:56;;;;;;;3.92;1.50;;;23.90;52.60;;;;;;6280469;22;20007;-72
2021/10/20 08:48:22;;;;;;;4.13;1.92;;;23.90;53.20;;;;;;6280854;22;20083;-71
2021/10/20 08:50:53;;;;;;;4.03;1.60;;;23.70;53.70;;;;;;6280618;22;20000;-72
2021/10/20 08:53:20;;;;;;;4.35;1.60;;;22.90;54.50;;;;;;6253721;22;20008;-71
2021/10/20 08:55:48;;;;;;;5.72;1.73;;;22.40;54.80;;;;;;6280503;22;20334;-71
2021/10/20 08:58:14;;;;;;;3.08;1.42;;;22.10;55.70;;;;;;6278373;22;20292;-71
2021/10/20 09:00:39;;;;;;;4.30;1.60;;;21.50;56.90;;;;;;6280405;22;20007;-72
2021/10/20 09:03:05;;;;;;;5.18;1.77;;;21.20;56.80;;;;;;6280532;22;20004;-71
2021/10/20 09:05:31;;;;;;;5.32;1.70;;;21.00;57.20;;;;;;6280328;22;20053;-71
2021/10/20 09:07:57;;;;;;;3.70;1.40;;;20.90;57.60;;;;;;6280374;22;20380;-70
2021/10/20 09:10:28;;;;;;;3.47;1.80;;;20.60;59.70;;;;;;6280476;22;20298;-70
2021/10/20 09:12:54;;;;;;;4.00;1.80;;;20.90;58.70;;;;;;6278892;22;20004;-70
2021/10/20 09:15:23;;;;;;;3.75;1.80;;;21.50;58.90;;;;;;6280427;22;20011;-71
2021/10/20 09:18:07;;;;;;;3.97;1.70;;;22.10;56.90;;;;;;6279966;22;20007;-70
2021/10/20 09:20:36;;;;;;;3.42;1.52;;;22.40;55.60;;;;;;6280464;22;20000;-72
2021/10/20 09:23:15;;;;;;;4.40;1.75;;;22.00;57.30;;;;;;6279793;22;20243;-72
2021/10/20 09:25:51;;;;;;;3.35;1.77;;;22.50;56.20;;;;;;6280208;22;20071;-72
2021/10/20 09:28:31;;;;;;;4.10;1.52;;;22.30;55.90;;;;;;6278725;22;20034;-72
2021/10/20 09:31:01;;;;;;;6.78;1.80;;;21.10;58.80;;;;;;6280043;22;20004;-71
2021/10/20 09:33:27;;;;;;;3.97;1.77;;;20.60;59.70;;;;;;6280374;22;20096;-71
2021/10/20 09:35:53;;;;;;;3.65;1.70;;;20.70;59.50;;;;;;6279881;22;20086;-72
2021/10/20 09:38:20;;;;;;;4.13;1.60;;;20.90;60.10;;;;;;6280286;22;20026;-72
2021/10/20 09:40:50;;;;;;;4.07;1.75;;;21.10;59.40;;;;;;6279940;22;20007;-72
2021/10/20 09:43:18;;;;;;;4.47;2.17;;;21.40;59.00;;;;;;6278630;22;20266;-71
2021/10/20 09:45:45;;;;;;;3.47;1.60;;;21.80;58.00;;;;;;6253280;22;20003;-71
2021/10/20 09:48:13;;;;;;;4.10;1.90;;;22.00;58.10;;;;;;6279749;22;20261;-71
2021/10/20 09:51:03;;;;;;;5.38;1.75;;;21.40;58.30;;;;;;6279699;22;20070;-72
2021/10/20 09:53:31;;;;;;;5.72;1.70;;;21.30;59.10;;;;;;6280063;22;20007;-72
2021/10/20 09:55:59;;;;;;;5.35;1.70;;;21.70;59.50;;;;;;6252793;22;20004;-72
2021/10/20 09:58:25;;;;;;;3.65;1.60;;;21.90;59.00;;;;;;6278495;22;20074;-71
2021/10/20 10:00:55;;;;;;;3.85;1.67;;;22.20;58.80;;;;;;6279878;22;20024;-71
2021/10/20 10:03:21;;;;;;;3.00;1.50;;;21.50;59.40;;;;;;6279743;22;20003;-70
2021/10/20 10:05:47;;;;;;;3.97;1.80;;;21.70;60.00;;;;;;6279716;22;20269;-70
2021/10/20 10:08:13;;;;;;;3.33;1.55;;;22.00;60.20;;;;;;6279793;22;20006;-71
2021/10/20 10:10:39;;;;;;;4.32;1.63;;;21.50;59.80;;;;;;6280004;22;20312;-71
2021/10/20 10:13:14;;;;;;;5.75;1.60;;;21.60;60.60;;;;;;6251135;22;20006;-71
2021/10/20 10:15:40;;;;;;;5.70;1.77;;;22.40;59.80;;;;;;6278824;22;20004;-71
2021/10/20 10:18:08;;;;;;;3.67;1.77;;;22.80;59.40;;;;;;6278894;22;20018;-71
2021/10/20 10:20:43;;;;;;;3.15;1.52;;;22.20;59.40;;;;;;6279289;22;20126;-70
2021/10/20 10:23:23;;;;;;;5.65;1.75;;;22.00;60.30;;;;;;6279101;22;19995;-71
2021/10/20 10:26:08;;;;;;;5.68;1.92;;;22.00;61.10;;;;;;6279708;22;19999;-72
2021/10/20 10:28:35;;;;;;;4.53;2.00;;;21.60;61.40;;;;;;6251567;22;20004;-70
2021/10/20 10:31:05;;;;;;;5.45;1.80;;;21.60;61.60;;;;;;6279474;22;19999;-71
2021/10/20 10:33:33;;;;;;;7.22;1.90;;;21.50;62.60;;;;;;6279778;22;20070;-72
2021/10/20 10:36:18;;;;;;;5.88;2.10;;;21.50;62.50;;;;;;6252603;22;20061;-70
2021/10/20 10:38:49;;;;;;;3.92;1.73;;;21.60;62.80;;;;;;6253057;22;20068;-71
2021/10/20 10:41:26;;;;;;;4.20;1.90;;;21.50;63.30;;;;;;6278419;22;20003;-68
2021/10/20 10:44:08;;;;;;;3.95;1.73;;;21.70;63.20;;;;;;6278244;22;20031;-68
2021/10/20 10:46:37;;;;;;;4.93;1.92;;;21.60;62.80;;;;;;6279034;22;20369;-68
2021/10/20 10:49:22;;;;;;;7.43;1.90;;;21.40;63.50;;;;;;6250765;22;20011;-71
2021/10/20 10:52:16;;;;;;;6.25;2.00;;;21.20;64.10;;;;;;6278153;22;20365;-72
2021/10/20 10:54:59;;;;;;;4.00;1.83;;;20.90;64.10;;;;;;6278471;22;20050;-71
2021/10/20 10:57:42;;;;;;;9.00;2.40;;;20.60;65.50;;;;;;6277209;22;20251;-71
2021/10/20 11:00:09;;;;;;;5.07;2.00;;;21.10;64.90;;;;;;6278987;22;20266;-70
2021/10/20 11:02:46;;;;;;;3.33;1.65;;;21.30;64.40;;;;;;6252452;22;20285;-71
2021/10/20 11:05:13;;;;;;;5.40;1.80;;;21.70;64.00;;;;;;6279160;22;20350;-71
2021/10/20 11:07:42;;;;;;;3.65;1.63;;;22.00;63.90;;;;;;6279572;22;19996;-70
2021/10/20 11:10:08;;;;;;;4.93;2.00;;;22.20;63.20;;;;;;6278193;22;19996;-71
2021/10/20 11:12:34;;;;;;;4.00;1.63;;;22.30;63.20;;;;;;6276614;22;20002;-71
2021/10/20 11:15:00;;;;;;;5.32;1.70;;;22.10;63.70;;;;;;6278592;22;20042;-70
2021/10/20 11:17:26;;;;;;;4.47;1.98;;;22.40;63.60;;;;;;6278121;22;20012;-71
2021/10/20 11:19:52;;;;;;;3.30;1.70;;;22.70;63.40;;;;;;6278182;22;20034;-71
2021/10/20 11:22:20;;;;;;;4.22;2.00;;;23.10;62.30;;;;;;6281038;22;20034;-71
2021/10/20 11:24:47;;;;;;;5.78;2.00;;;23.20;62.40;;;;;;6280002;22;20038;-72
2021/10/20 11:27:14;;;;;;;5.75;1.85;;;23.50;61.70;;;;;;6278839;22;20377;-72
2021/10/20 11:29:48;;;;;;;4.22;1.88;;;23.10;62.00;;;;;;6280298;22;20070;-72
2021/10/20 11:32:16;;;;;;;5.03;1.95;;;22.90;63.30;;;;;;6280191;22;20043;-71
2021/10/20 11:34:44;;;;;;;4.90;1.75;;;22.70;63.30;;;;;;6280473;22;20483;-73
2021/10/20 11:37:10;;;;;;;4.45;1.95;;;22.60;64.00;;;;;;6280098;22;20000;-71
2021/10/20 11:39:37;;;;;;;4.18;2.20;;;22.70;64.30;;;;;;6279852;22;20062;-72
2021/10/20 11:42:09;;;;;;;6.75;2.22;;;22.20;64.20;;;;;;6252111;22;20369;-71
2021/10/20 11:44:36;;;;;;;4.05;2.00;;;21.60;65.50;;;;;;6253188;22;20008;-70
2021/10/20 11:47:05;;;;;;;5.30;2.33;;;21.00;66.80;;;;;;6279874;22;20004;-72
2021/10/20 11:49:33;;;;;;;7.93;2.22;;;20.60;67.80;;;;;;6279603;22;20003;-71
2021/10/20 11:51:58;;;;;;;6.30;2.97;;;20.60;68.10;;;;;;6280563;22;20008;-71
2021/10/20 11:54:25;;;;;;;4.30;2.15;;;20.70;68.90;;;;;;6280418;22;20010;-70
2021/10/20 11:56:55;;;;;;;4.30;1.73;;;21.20;67.50;;;;;;6279107;22;20004;-69
2021/10/20 11:59:24;;;;;;;5.55;2.13;;;21.60;67.30;;;;;;6281020;22;20309;-70
2021/10/20 12:01:51;;;;;;;4.15;2.45;;;21.90;66.30;;;;;;6280666;22;20251;-70
2021/10/20 12:04:19;;;;;;;4.82;2.28;;;22.30;65.60;;;;;;6280336;22;20049;-70
2021/10/20 12:06:48;;;;;;;3.95;1.90;;;22.60;65.40;;;;;;6280904;22;20000;-70
2021/10/20 12:09:15;;;;;;;3.88;1.88;;;23.00;65.30;;;;;;6280904;22;20003;-70
2021/10/20 12:11:42;;;;;;;5.72;1.80;;;23.00;64.60;;;;;;6279401;22;20057;-70
2021/10/20 12:14:12;;;;;;;4.15;1.90;;;23.00;64.10;;;;;;6253566;22;20008;-69
2021/10/20 12:16:40;;;;;;;4.65;1.98;;;22.60;65.20;;;;;;6280532;22;20025;-70
2021/10/20 12:19:10;;;;;;;3.67;1.88;;;22.70;65.30;;;;;;6280583;22;19996;-69
2021/10/20 12:21:38;;;;;;;5.75;1.98;;;22.70;64.40;;;;;;6280399;22;19996;-70
2021/10/20 12:24:05;;;;;;;9.25;2.00;;;22.70;64.90;;;;;;6280705;22;20363;-70
2021/10/20 12:26:33;;;;;;;7.57;2.10;;;22.50;65.50;;;;;;6252566;22;20008;-70
2021/10/20 12:29:09;;;;;;;6.43;2.08;;;22.20;66.00;;;;;;6280511;22;20078;-70
2021/10/20 12:31:38;;;;;;;4.95;2.08;;;22.30;65.60;;;;;;6253248;22;20326;-70
2021/10/20 12:34:05;;;;;;;4.10;1.90;;;22.60;66.10;;;;;;6280323;22;20091;-69
2021/10/20 12:36:33;;;;;;;7.00;2.30;;;22.30;65.80;;;;;;6280299;22;20004;-69
2021/10/20 12:39:02;;;;;;;8.82;2.58;;;22.10;66.20;;;;;;6280375;22;20003;-69
2021/10/20 12:41:31;;;;;;;12.70;2.42;;;21.70;67.60;;;;;;6252792;22;20004;-70
2021/10/20 12:44:02;;;;;;;7.68;2.10;;;22.00;67.50;;;;;;6280410;22;20046;-69
2021/10/20 12:46:30;;;;;;;6.78;2.17;;;22.40;66.90;;;;;;6280091;22;20109;-70
2021/10/20 12:48:57;;;;;;;5.28;2.20;;;22.10;67.30;;;;;;6279631;22;20361;-70